sensor_id;sensor_type;location;lat;lon;timestamp;P1;durP1;ratioP1;P2;durP2;ratioP2
16512;SDS011;8369;48.030;11.598;2022-07-18T00:00:20;3.78;;;3.08;;
16512;SDS011;8369;48.030;11.598;2022-07-18T00:02:46;3.30;;;3.00;;
16512;SDS011;8369;48.030;11.598;2022-07-18T00:05:11;3.15;;;2.70;;
16512;SDS011;8369;48.030;11.598;2022-07-18T00:07:46;3.20;;;2.90;;
16512;SDS011;8369;48.030;11.598;2022-07-18T00:10:12;3.00;;;2.67;;
16512;SDS011;8369;48.030;11.598;2022-07-18T00:12:38;3.22;;;2.92;;
16512;SDS011;8369;48.030;11.598;2022-07-18T00:15:04;3.72;;;3.25;;
16512;SDS011;8369;48.030;11.598;2022-07-18T00:17:30;3.30;;;3.00;;
16512;SDS011;8369;48.030;11.598;2022-07-18T00:20:00;4.20;;;2.90;;
16512;SDS011;8369;48.030;11.598;2022-07-18T00:22:26;5.10;;;2.95;;
16512;SDS011;8369;48.030;11.598;2022-07-18T00:24:51;3.60;;;3.28;;
16512;SDS011;8369;48.030;11.598;2022-07-18T00:27:17;2.90;;;2.63;;
16512;SDS011;8369;48.030;11.598;2022-07-18T00:29:43;8.65;;;3.20;;
16512;SDS011;8369;48.030;11.598;2022-07-18T00:32:08;3.28;;;2.97;;
16512;SDS011;8369;48.030;11.598;2022-07-18T00:34:34;4.43;;;2.88;;
16512;SDS011;8369;48.030;11.598;2022-07-18T00:37:04;3.28;;;2.97;;
16512;SDS011;8369;48.030;11.598;2022-07-18T00:39:30;3.03;;;2.72;;
16512;SDS011;8369;48.030;11.598;2022-07-18T00:41:56;4.03;;;3.10;;
16512;SDS011;8369;48.030;11.598;2022-07-18T00:44:24;3.47;;;2.90;;
16512;SDS011;8369;48.030;11.598;2022-07-18T00:46:51;4.63;;;3.17;;
16512;SDS011;8369;48.030;11.598;2022-07-18T00:49:18;5.47;;;3.10;;
16512;SDS011;8369;48.030;11.598;2022-07-18T00:51:45;3.95;;;2.90;;
16512;SDS011;8369;48.030;11.598;2022-07-18T00:54:11;3.40;;;3.10;;
16512;SDS011;8369;48.030;11.598;2022-07-18T00:56:37;2.90;;;2.70;;
16512;SDS011;8369;48.030;11.598;2022-07-18T00:59:03;3.20;;;2.90;;
16512;SDS011;8369;48.030;11.598;2022-07-18T01:01:31;2.95;;;2.70;;
16512;SDS011;8369;48.030;11.598;2022-07-18T01:04:14;4.47;;;3.30;;
16512;SDS011;8369;48.030;11.598;2022-07-18T01:06:45;3.38;;;3.08;;
16512;SDS011;8369;48.030;11.598;2022-07-18T01:09:13;3.37;;;3.07;;
16512;SDS011;8369;48.030;11.598;2022-07-18T01:11:39;3.43;;;3.13;;
16512;SDS011;8369;48.030;11.598;2022-07-18T01:14:06;5.37;;;3.13;;
16512;SDS011;8369;48.030;11.598;2022-07-18T01:16:32;3.05;;;2.78;;
16512;SDS011;8369;48.030;11.598;2022-07-18T01:19:00;4.20;;;3.13;;
16512;SDS011;8369;48.030;11.598;2022-07-18T01:21:31;3.80;;;3.47;;
16512;SDS011;8369;48.030;11.598;2022-07-18T01:23:57;3.13;;;2.83;;
16512;SDS011;8369;48.030;11.598;2022-07-18T01:26:23;3.10;;;2.90;;
16512;SDS011;8369;48.030;11.598;2022-07-18T01:28:52;3.20;;;2.90;;
16512;SDS011;8369;48.030;11.598;2022-07-18T01:31:18;3.97;;;3.00;;
16512;SDS011;8369;48.030;11.598;2022-07-18T01:33:44;3.30;;;3.00;;
16512;SDS011;8369;48.030;11.598;2022-07-18T01:36:12;3.10;;;2.80;;
16512;SDS011;8369;48.030;11.598;2022-07-18T01:38:38;3.17;;;2.87;;
16512;SDS011;8369;48.030;11.598;2022-07-18T01:41:04;3.50;;;3.20;;
16512;SDS011;8369;48.030;11.598;2022-07-18T01:43:30;3.10;;;2.80;;
16512;SDS011;8369;48.030;11.598;2022-07-18T01:45:59;3.10;;;2.80;;
16512;SDS011;8369;48.030;11.598;2022-07-18T01:48:25;3.70;;;3.23;;
16512;SDS011;8369;48.030;11.598;2022-07-18T01:50:54;4.97;;;3.40;;
16512;SDS011;8369;48.030;11.598;2022-07-18T01:53:23;3.37;;;3.07;;
16512;SDS011;8369;48.030;11.598;2022-07-18T01:55:49;3.53;;;3.23;;
16512;SDS011;8369;48.030;11.598;2022-07-18T01:58:19;3.60;;;3.30;;
16512;SDS011;8369;48.030;11.598;2022-07-18T02:00:45;3.47;;;3.17;;
16512;SDS011;8369;48.030;11.598;2022-07-18T02:03:13;3.00;;;2.80;;
16512;SDS011;8369;48.030;11.598;2022-07-18T02:05:39;3.83;;;3.20;;
16512;SDS011;8369;48.030;11.598;2022-07-18T02:08:05;3.53;;;3.13;;
16512;SDS011;8369;48.030;11.598;2022-07-18T02:10:34;3.60;;;3.30;;
16512;SDS011;8369;48.030;11.598;2022-07-18T02:13:03;4.03;;;2.97;;
16512;SDS011;8369;48.030;11.598;2022-07-18T02:15:32;3.63;;;3.00;;
16512;SDS011;8369;48.030;11.598;2022-07-18T02:17:57;6.57;;;2.97;;
16512;SDS011;8369;48.030;11.598;2022-07-18T02:20:27;3.60;;;3.10;;
16512;SDS011;8369;48.030;11.598;2022-07-18T02:22:53;3.20;;;2.90;;
16512;SDS011;8369;48.030;11.598;2022-07-18T02:25:19;3.20;;;2.90;;
16512;SDS011;8369;48.030;11.598;2022-07-18T02:27:44;3.40;;;3.10;;
16512;SDS011;8369;48.030;11.598;2022-07-18T02:30:10;3.23;;;2.93;;
16512;SDS011;8369;48.030;11.598;2022-07-18T02:32:36;3.17;;;2.87;;
16512;SDS011;8369;48.030;11.598;2022-07-18T02:35:03;3.87;;;3.43;;
16512;SDS011;8369;48.030;11.598;2022-07-18T02:37:30;3.43;;;2.93;;
16512;SDS011;8369;48.030;11.598;2022-07-18T02:39:56;3.17;;;2.57;;
16512;SDS011;8369;48.030;11.598;2022-07-18T02:42:25;2.73;;;2.53;;
16512;SDS011;8369;48.030;11.598;2022-07-18T02:44:51;3.07;;;2.77;;
16512;SDS011;8369;48.030;11.598;2022-07-18T02:47:17;3.47;;;2.90;;
16512;SDS011;8369;48.030;11.598;2022-07-18T02:49:43;3.37;;;2.90;;
16512;SDS011;8369;48.030;11.598;2022-07-18T02:52:08;3.70;;;3.00;;
16512;SDS011;8369;48.030;11.598;2022-07-18T02:54:35;2.90;;;2.70;;
16512;SDS011;8369;48.030;11.598;2022-07-18T02:57:03;3.40;;;3.10;;
16512;SDS011;8369;48.030;11.598;2022-07-18T02:59:29;3.20;;;2.90;;
16512;SDS011;8369;48.030;11.598;2022-07-18T03:01:58;2.97;;;2.70;;
16512;SDS011;8369;48.030;11.598;2022-07-18T03:04:26;3.20;;;2.90;;
16512;SDS011;8369;48.030;11.598;2022-07-18T03:06:52;3.07;;;2.80;;
16512;SDS011;8369;48.030;11.598;2022-07-18T03:09:21;3.20;;;2.90;;
16512;SDS011;8369;48.030;11.598;2022-07-18T03:11:50;3.33;;;3.00;;
16512;SDS011;8369;48.030;11.598;2022-07-18T03:14:16;3.57;;;2.90;;
16512;SDS011;8369;48.030;11.598;2022-07-18T03:16:45;2.87;;;2.67;;
16512;SDS011;8369;48.030;11.598;2022-07-18T03:19:14;3.23;;;2.93;;
16512;SDS011;8369;48.030;11.598;2022-07-18T03:21:43;7.40;;;3.10;;
16512;SDS011;8369;48.030;11.598;2022-07-18T03:24:11;3.30;;;3.00;;
16512;SDS011;8369;48.030;11.598;2022-07-18T03:26:40;4.00;;;3.10;;
16512;SDS011;8369;48.030;11.598;2022-07-18T03:29:08;3.57;;;2.90;;
16512;SDS011;8369;48.030;11.598;2022-07-18T03:31:34;3.63;;;3.27;;
16512;SDS011;8369;48.030;11.598;2022-07-18T03:34:02;4.63;;;3.40;;
16512;SDS011;8369;48.030;11.598;2022-07-18T03:36:31;3.20;;;2.90;;
16512;SDS011;8369;48.030;11.598;2022-07-18T03:38:59;3.87;;;3.07;;
16512;SDS011;8369;48.030;11.598;2022-07-18T03:41:25;4.47;;;3.10;;
16512;SDS011;8369;48.030;11.598;2022-07-18T03:43:52;4.60;;;3.03;;
16512;SDS011;8369;48.030;11.598;2022-07-18T03:46:18;5.87;;;3.10;;
16512;SDS011;8369;48.030;11.598;2022-07-18T03:48:45;3.67;;;3.00;;
16512;SDS011;8369;48.030;11.598;2022-07-18T03:51:15;3.30;;;2.80;;
16512;SDS011;8369;48.030;11.598;2022-07-18T03:53:42;4.30;;;3.13;;
16512;SDS011;8369;48.030;11.598;2022-07-18T03:56:08;3.80;;;3.40;;
16512;SDS011;8369;48.030;11.598;2022-07-18T03:58:34;4.03;;;2.93;;
16512;SDS011;8369;48.030;11.598;2022-07-18T04:01:01;3.33;;;3.00;;
16512;SDS011;8369;48.030;11.598;2022-07-18T04:03:27;3.93;;;2.90;;
16512;SDS011;8369;48.030;11.598;2022-07-18T04:05:53;4.30;;;3.33;;
16512;SDS011;8369;48.030;11.598;2022-07-18T04:08:19;5.53;;;3.30;;
16512;SDS011;8369;48.030;11.598;2022-07-18T04:10:48;4.63;;;2.87;;
16512;SDS011;8369;48.030;11.598;2022-07-18T04:13:13;4.13;;;3.00;;
16512;SDS011;8369;48.030;11.598;2022-07-18T04:15:39;3.43;;;2.90;;
16512;SDS011;8369;48.030;11.598;2022-07-18T04:18:13;3.70;;;3.30;;
16512;SDS011;8369;48.030;11.598;2022-07-18T04:20:44;2.63;;;2.30;;
16512;SDS011;8369;48.030;11.598;2022-07-18T04:23:10;3.07;;;2.83;;
16512;SDS011;8369;48.030;11.598;2022-07-18T04:25:37;6.03;;;3.40;;
16512;SDS011;8369;48.030;11.598;2022-07-18T04:28:07;3.40;;;3.00;;
16512;SDS011;8369;48.030;11.598;2022-07-18T04:30:34;3.87;;;3.20;;
16512;SDS011;8369;48.030;11.598;2022-07-18T04:33:01;3.43;;;3.13;;
16512;SDS011;8369;48.030;11.598;2022-07-18T04:35:31;4.10;;;3.07;;
16512;SDS011;8369;48.030;11.598;2022-07-18T04:37:57;3.30;;;3.00;;
16512;SDS011;8369;48.030;11.598;2022-07-18T04:40:24;3.37;;;3.07;;
16512;SDS011;8369;48.030;11.598;2022-07-18T04:42:50;4.00;;;2.93;;
16512;SDS011;8369;48.030;11.598;2022-07-18T04:45:16;4.13;;;3.33;;
16512;SDS011;8369;48.030;11.598;2022-07-18T04:47:45;7.20;;;3.10;;
16512;SDS011;8369;48.030;11.598;2022-07-18T04:50:11;3.60;;;2.97;;
16512;SDS011;8369;48.030;11.598;2022-07-18T04:52:38;4.97;;;3.60;;
16512;SDS011;8369;48.030;11.598;2022-07-18T04:55:08;8.87;;;3.13;;
16512;SDS011;8369;48.030;11.598;2022-07-18T04:57:36;3.40;;;2.93;;
16512;SDS011;8369;48.030;11.598;2022-07-18T05:00:03;3.10;;;2.80;;
16512;SDS011;8369;48.030;11.598;2022-07-18T05:02:32;6.67;;;3.20;;
16512;SDS011;8369;48.030;11.598;2022-07-18T05:04:58;4.27;;;3.63;;
16512;SDS011;8369;48.030;11.598;2022-07-18T05:07:23;3.60;;;3.30;;
16512;SDS011;8369;48.030;11.598;2022-07-18T05:09:50;3.80;;;3.07;;
16512;SDS011;8369;48.030;11.598;2022-07-18T05:12:16;4.27;;;3.10;;
16512;SDS011;8369;48.030;11.598;2022-07-18T05:14:43;6.60;;;3.00;;
16512;SDS011;8369;48.030;11.598;2022-07-18T05:17:09;3.73;;;3.27;;
16512;SDS011;8369;48.030;11.598;2022-07-18T05:19:35;13.23;;;3.50;;
16512;SDS011;8369;48.030;11.598;2022-07-18T05:22:01;7.23;;;3.63;;
16512;SDS011;8369;48.030;11.598;2022-07-18T05:24:27;5.23;;;3.10;;
16512;SDS011;8369;48.030;11.598;2022-07-18T05:26:55;12.77;;;3.80;;
16512;SDS011;8369;48.030;11.598;2022-07-18T05:29:25;5.70;;;3.30;;
16512;SDS011;8369;48.030;11.598;2022-07-18T05:31:51;8.87;;;3.97;;
16512;SDS011;8369;48.030;11.598;2022-07-18T05:34:16;6.63;;;3.70;;
16512;SDS011;8369;48.030;11.598;2022-07-18T05:36:44;7.07;;;3.70;;
16512;SDS011;8369;48.030;11.598;2022-07-18T05:39:09;11.32;;;3.45;;
16512;SDS011;8369;48.030;11.598;2022-07-18T05:41:39;5.00;;;3.53;;
16512;SDS011;8369;48.030;11.598;2022-07-18T05:44:04;7.95;;;3.80;;
16512;SDS011;8369;48.030;11.598;2022-07-18T05:46:30;9.55;;;3.75;;
16512;SDS011;8369;48.030;11.598;2022-07-18T05:48:57;11.40;;;4.05;;
16512;SDS011;8369;48.030;11.598;2022-07-18T05:51:23;12.80;;;4.50;;
16512;SDS011;8369;48.030;11.598;2022-07-18T05:53:49;11.95;;;4.25;;
16512;SDS011;8369;48.030;11.598;2022-07-18T05:56:15;13.35;;;4.72;;
16512;SDS011;8369;48.030;11.598;2022-07-18T05:58:41;18.67;;;4.13;;
16512;SDS011;8369;48.030;11.598;2022-07-18T06:01:07;12.02;;;4.07;;
16512;SDS011;8369;48.030;11.598;2022-07-18T06:03:33;6.30;;;3.88;;
16512;SDS011;8369;48.030;11.598;2022-07-18T06:05:58;6.20;;;3.80;;
16512;SDS011;8369;48.030;11.598;2022-07-18T06:08:24;10.20;;;4.82;;
16512;SDS011;8369;48.030;11.598;2022-07-18T06:10:53;6.93;;;3.63;;
16512;SDS011;8369;48.030;11.598;2022-07-18T06:13:22;8.90;;;3.67;;
16512;SDS011;8369;48.030;11.598;2022-07-18T06:15:59;6.65;;;3.63;;
16512;SDS011;8369;48.030;11.598;2022-07-18T06:18:33;5.45;;;3.55;;
16512;SDS011;8369;48.030;11.598;2022-07-18T06:21:05;9.10;;;4.15;;
16512;SDS011;8369;48.030;11.598;2022-07-18T06:23:31;6.82;;;3.67;;
16512;SDS011;8369;48.030;11.598;2022-07-18T06:25:57;4.32;;;3.30;;
16512;SDS011;8369;48.030;11.598;2022-07-18T06:28:24;8.00;;;3.40;;
16512;SDS011;8369;48.030;11.598;2022-07-18T06:30:51;8.15;;;3.40;;
16512;SDS011;8369;48.030;11.598;2022-07-18T06:33:17;13.85;;;3.58;;
16512;SDS011;8369;48.030;11.598;2022-07-18T06:35:46;6.43;;;3.45;;
16512;SDS011;8369;48.030;11.598;2022-07-18T06:38:15;6.57;;;4.18;;
16512;SDS011;8369;48.030;11.598;2022-07-18T06:40:42;4.95;;;3.30;;
16512;SDS011;8369;48.030;11.598;2022-07-18T06:43:11;9.65;;;3.40;;
16512;SDS011;8369;48.030;11.598;2022-07-18T06:45:38;6.80;;;3.38;;
16512;SDS011;8369;48.030;11.598;2022-07-18T06:48:13;7.45;;;3.58;;
16512;SDS011;8369;48.030;11.598;2022-07-18T06:50:41;8.13;;;3.58;;
16512;SDS011;8369;48.030;11.598;2022-07-18T06:53:10;5.15;;;3.42;;
16512;SDS011;8369;48.030;11.598;2022-07-18T06:55:39;5.35;;;3.58;;
16512;SDS011;8369;48.030;11.598;2022-07-18T06:58:05;2.85;;;2.58;;
16512;SDS011;8369;48.030;11.598;2022-07-18T07:00:35;3.30;;;2.60;;
16512;SDS011;8369;48.030;11.598;2022-07-18T07:03:06;5.75;;;3.20;;
16512;SDS011;8369;48.030;11.598;2022-07-18T07:05:35;3.50;;;3.17;;
16512;SDS011;8369;48.030;11.598;2022-07-18T07:08:05;4.57;;;3.42;;
16512;SDS011;8369;48.030;11.598;2022-07-18T07:10:31;3.28;;;2.97;;
16512;SDS011;8369;48.030;11.598;2022-07-18T07:13:00;3.85;;;3.47;;
16512;SDS011;8369;48.030;11.598;2022-07-18T07:15:39;5.82;;;3.22;;
16512;SDS011;8369;48.030;11.598;2022-07-18T07:18:10;3.10;;;2.80;;
16512;SDS011;8369;48.030;11.598;2022-07-18T07:20:38;5.40;;;3.13;;
16512;SDS011;8369;48.030;11.598;2022-07-18T07:23:07;10.07;;;3.30;;
16512;SDS011;8369;48.030;11.598;2022-07-18T07:25:39;13.88;;;3.40;;
16512;SDS011;8369;48.030;11.598;2022-07-18T07:28:05;5.63;;;2.85;;
16512;SDS011;8369;48.030;11.598;2022-07-18T07:30:36;4.63;;;3.42;;
16512;SDS011;8369;48.030;11.598;2022-07-18T07:33:06;4.53;;;2.63;;
16512;SDS011;8369;48.030;11.598;2022-07-18T07:35:40;3.08;;;2.80;;
16512;SDS011;8369;48.030;11.598;2022-07-18T07:38:06;3.45;;;2.90;;
16512;SDS011;8369;48.030;11.598;2022-07-18T07:40:32;4.85;;;2.95;;
16512;SDS011;8369;48.030;11.598;2022-07-18T07:43:09;5.07;;;2.80;;
16512;SDS011;8369;48.030;11.598;2022-07-18T07:45:42;3.45;;;2.53;;
16512;SDS011;8369;48.030;11.598;2022-07-18T07:48:14;4.13;;;2.70;;
16512;SDS011;8369;48.030;11.598;2022-07-18T07:50:43;2.60;;;2.28;;
16512;SDS011;8369;48.030;11.598;2022-07-18T07:53:12;3.17;;;2.50;;
16512;SDS011;8369;48.030;11.598;2022-07-18T07:55:40;2.60;;;2.33;;
16512;SDS011;8369;48.030;11.598;2022-07-18T07:58:06;2.33;;;2.13;;
16512;SDS011;8369;48.030;11.598;2022-07-18T08:00:32;4.68;;;2.40;;
16512;SDS011;8369;48.030;11.598;2022-07-18T08:03:02;2.50;;;2.30;;
16512;SDS011;8369;48.030;11.598;2022-07-18T08:05:30;4.32;;;2.38;;
16512;SDS011;8369;48.030;11.598;2022-07-18T08:07:58;2.60;;;1.95;;
16512;SDS011;8369;48.030;11.598;2022-07-18T08:10:25;7.60;;;2.15;;
16512;SDS011;8369;48.030;11.598;2022-07-18T08:12:58;2.38;;;2.00;;
16512;SDS011;8369;48.030;11.598;2022-07-18T08:15:24;3.25;;;2.20;;
16512;SDS011;8369;48.030;11.598;2022-07-18T08:17:54;2.30;;;2.10;;
16512;SDS011;8369;48.030;11.598;2022-07-18T08:20:31;2.47;;;2.28;;
16512;SDS011;8369;48.030;11.598;2022-07-18T08:23:08;2.70;;;2.22;;
16512;SDS011;8369;48.030;11.598;2022-07-18T08:25:36;2.47;;;2.22;;
16512;SDS011;8369;48.030;11.598;2022-07-18T08:28:08;2.92;;;2.28;;
16512;SDS011;8369;48.030;11.598;2022-07-18T08:30:38;3.72;;;2.22;;
16512;SDS011;8369;48.030;11.598;2022-07-18T08:33:09;8.07;;;2.60;;
16512;SDS011;8369;48.030;11.598;2022-07-18T08:35:35;3.53;;;2.20;;
16512;SDS011;8369;48.030;11.598;2022-07-18T08:38:02;2.20;;;1.92;;
16512;SDS011;8369;48.030;11.598;2022-07-18T08:40:29;5.18;;;2.25;;
16512;SDS011;8369;48.030;11.598;2022-07-18T08:43:11;4.50;;;2.30;;
16512;SDS011;8369;48.030;11.598;2022-07-18T08:45:37;2.17;;;1.98;;
16512;SDS011;8369;48.030;11.598;2022-07-18T08:48:26;4.95;;;2.05;;
16512;SDS011;8369;48.030;11.598;2022-07-18T08:53:51;2.15;;;1.85;;
16512;SDS011;8369;48.030;11.598;2022-07-18T08:56:24;5.28;;;2.03;;
16512;SDS011;8369;48.030;11.598;2022-07-18T08:58:53;2.65;;;2.10;;
16512;SDS011;8369;48.030;11.598;2022-07-18T09:01:22;2.05;;;1.85;;
16512;SDS011;8369;48.030;11.598;2022-07-18T09:03:48;3.15;;;1.92;;
16512;SDS011;8369;48.030;11.598;2022-07-18T09:06:44;2.20;;;2.00;;
16512;SDS011;8369;48.030;11.598;2022-07-18T09:09:11;4.40;;;2.00;;
16512;SDS011;8369;48.030;11.598;2022-07-18T09:17:11;1.80;;;1.70;;
16512;SDS011;8369;48.030;11.598;2022-07-18T09:22:23;2.53;;;1.77;;
16512;SDS011;8369;48.030;11.598;2022-07-18T09:24:51;2.10;;;1.90;;
16512;SDS011;8369;48.030;11.598;2022-07-18T09:27:27;1.80;;;1.70;;
16512;SDS011;8369;48.030;11.598;2022-07-18T09:32:51;2.42;;;2.22;;
16512;SDS011;8369;48.030;11.598;2022-07-18T09:35:30;2.03;;;1.70;;
16512;SDS011;8369;48.030;11.598;2022-07-18T09:40:57;1.70;;;1.60;;
16512;SDS011;8369;48.030;11.598;2022-07-18T09:43:24;3.03;;;1.67;;
16512;SDS011;8369;48.030;11.598;2022-07-18T09:45:52;1.88;;;1.55;;
16512;SDS011;8369;48.030;11.598;2022-07-18T09:48:35;2.60;;;1.70;;
16512;SDS011;8369;48.030;11.598;2022-07-18T09:51:04;1.98;;;1.73;;
16512;SDS011;8369;48.030;11.598;2022-07-18T09:53:38;2.67;;;1.60;;
16512;SDS011;8369;48.030;11.598;2022-07-18T09:56:11;2.28;;;1.90;;
16512;SDS011;8369;48.030;11.598;2022-07-18T09:58:52;4.90;;;1.70;;
16512;SDS011;8369;48.030;11.598;2022-07-18T10:01:22;2.35;;;1.92;;
16512;SDS011;8369;48.030;11.598;2022-07-18T10:03:49;2.95;;;1.70;;
16512;SDS011;8369;48.030;11.598;2022-07-18T10:06:21;2.33;;;1.77;;
16512;SDS011;8369;48.030;11.598;2022-07-18T10:08:50;5.18;;;1.90;;
16512;SDS011;8369;48.030;11.598;2022-07-18T10:11:19;1.65;;;1.50;;
16512;SDS011;8369;48.030;11.598;2022-07-18T10:13:45;2.90;;;1.90;;
16512;SDS011;8369;48.030;11.598;2022-07-18T10:16:15;1.77;;;1.67;;
16512;SDS011;8369;48.030;11.598;2022-07-18T10:18:42;3.15;;;1.90;;
16512;SDS011;8369;48.030;11.598;2022-07-18T10:21:15;2.05;;;1.70;;
16512;SDS011;8369;48.030;11.598;2022-07-18T10:23:48;2.78;;;1.77;;
16512;SDS011;8369;48.030;11.598;2022-07-18T10:31:21;4.10;;;2.00;;
16512;SDS011;8369;48.030;11.598;2022-07-18T10:33:48;1.73;;;1.58;;
16512;SDS011;8369;48.030;11.598;2022-07-18T10:36:21;2.85;;;1.80;;
16512;SDS011;8369;48.030;11.598;2022-07-18T10:57:32;3.95;;;1.70;;
16512;SDS011;8369;48.030;11.598;2022-07-18T11:00:04;2.00;;;1.60;;
16512;SDS011;8369;48.030;11.598;2022-07-18T11:05:54;2.10;;;1.90;;
16512;SDS011;8369;48.030;11.598;2022-07-18T11:16:11;1.80;;;1.70;;
16512;SDS011;8369;48.030;11.598;2022-07-18T11:25:24;2.17;;;1.70;;
16512;SDS011;8369;48.030;11.598;2022-07-18T11:28:07;2.75;;;1.83;;
16512;SDS011;8369;48.030;11.598;2022-07-18T11:30:34;3.70;;;2.00;;
16512;SDS011;8369;48.030;11.598;2022-07-18T11:33:04;2.55;;;1.80;;
16512;SDS011;8369;48.030;11.598;2022-07-18T11:35:49;1.90;;;1.80;;
16512;SDS011;8369;48.030;11.598;2022-07-18T11:38:17;1.80;;;1.65;;
16512;SDS011;8369;48.030;11.598;2022-07-18T11:40:49;1.80;;;1.70;;
16512;SDS011;8369;48.030;11.598;2022-07-18T11:43:23;1.77;;;1.67;;
16512;SDS011;8369;48.030;11.598;2022-07-18T11:46:07;2.35;;;1.80;;
16512;SDS011;8369;48.030;11.598;2022-07-18T11:48:35;3.13;;;1.90;;
16512;SDS011;8369;48.030;11.598;2022-07-18T11:51:09;1.80;;;1.70;;
16512;SDS011;8369;48.030;11.598;2022-07-18T11:53:55;1.60;;;1.50;;
16512;SDS011;8369;48.030;11.598;2022-07-18T11:56:31;2.90;;;1.83;;
16512;SDS011;8369;48.030;11.598;2022-07-18T11:59:21;3.45;;;2.05;;
16512;SDS011;8369;48.030;11.598;2022-07-18T12:01:53;1.85;;;1.75;;
16512;SDS011;8369;48.030;11.598;2022-07-18T12:04:23;2.13;;;1.67;;
16512;SDS011;8369;48.030;11.598;2022-07-18T12:09:37;2.10;;;1.90;;
16512;SDS011;8369;48.030;11.598;2022-07-18T12:12:09;2.85;;;1.75;;
16512;SDS011;8369;48.030;11.598;2022-07-18T12:14:39;3.75;;;1.67;;
16512;SDS011;8369;48.030;11.598;2022-07-18T12:17:08;2.20;;;1.90;;
16512;SDS011;8369;48.030;11.598;2022-07-18T12:19:38;2.25;;;2.00;;
16512;SDS011;8369;48.030;11.598;2022-07-18T12:22:16;1.90;;;1.67;;
16512;SDS011;8369;48.030;11.598;2022-07-18T12:24:52;2.65;;;1.90;;
16512;SDS011;8369;48.030;11.598;2022-07-18T12:30:04;4.28;;;2.50;;
16512;SDS011;8369;48.030;11.598;2022-07-18T12:32:49;2.85;;;1.95;;
16512;SDS011;8369;48.030;11.598;2022-07-18T12:38:16;3.05;;;2.03;;
16512;SDS011;8369;48.030;11.598;2022-07-18T12:40:53;2.30;;;1.80;;
16512;SDS011;8369;48.030;11.598;2022-07-18T12:46:00;2.25;;;1.90;;
16512;SDS011;8369;48.030;11.598;2022-07-18T12:48:30;2.60;;;1.90;;
16512;SDS011;8369;48.030;11.598;2022-07-18T12:51:08;3.05;;;1.90;;
16512;SDS011;8369;48.030;11.598;2022-07-18T12:53:43;2.10;;;1.90;;
16512;SDS011;8369;48.030;11.598;2022-07-18T12:56:09;2.10;;;1.90;;
16512;SDS011;8369;48.030;11.598;2022-07-18T12:58:36;3.63;;;1.92;;
16512;SDS011;8369;48.030;11.598;2022-07-18T13:01:15;2.10;;;1.90;;
16512;SDS011;8369;48.030;11.598;2022-07-18T13:03:43;2.17;;;1.88;;
16512;SDS011;8369;48.030;11.598;2022-07-18T13:06:16;1.80;;;1.70;;
16512;SDS011;8369;48.030;11.598;2022-07-18T13:08:43;4.72;;;1.95;;
16512;SDS011;8369;48.030;11.598;2022-07-18T13:11:14;2.33;;;2.00;;
16512;SDS011;8369;48.030;11.598;2022-07-18T13:13:43;2.75;;;1.60;;
16512;SDS011;8369;48.030;11.598;2022-07-18T13:16:08;5.00;;;2.20;;
16512;SDS011;8369;48.030;11.598;2022-07-18T13:18:37;2.03;;;1.83;;
16512;SDS011;8369;48.030;11.598;2022-07-18T13:21:03;1.98;;;1.88;;
16512;SDS011;8369;48.030;11.598;2022-07-18T13:23:29;13.38;;;2.80;;
16512;SDS011;8369;48.030;11.598;2022-07-18T13:25:58;1.80;;;1.70;;
16512;SDS011;8369;48.030;11.598;2022-07-18T13:28:27;6.22;;;1.70;;
16512;SDS011;8369;48.030;11.598;2022-07-18T13:30:53;2.08;;;1.88;;
16512;SDS011;8369;48.030;11.598;2022-07-18T13:33:24;3.10;;;1.70;;
16512;SDS011;8369;48.030;11.598;2022-07-18T13:35:50;2.13;;;1.92;;
16512;SDS011;8369;48.030;11.598;2022-07-18T13:38:19;2.83;;;2.00;;
16512;SDS011;8369;48.030;11.598;2022-07-18T13:40:48;2.13;;;1.73;;
16512;SDS011;8369;48.030;11.598;2022-07-18T13:43:14;5.50;;;1.70;;
16512;SDS011;8369;48.030;11.598;2022-07-18T13:45:42;2.78;;;1.80;;
16512;SDS011;8369;48.030;11.598;2022-07-18T13:48:08;1.90;;;1.80;;
16512;SDS011;8369;48.030;11.598;2022-07-18T13:50:36;3.40;;;1.88;;
16512;SDS011;8369;48.030;11.598;2022-07-18T13:53:02;2.05;;;1.70;;
16512;SDS011;8369;48.030;11.598;2022-07-18T13:55:34;1.95;;;1.83;;
16512;SDS011;8369;48.030;11.598;2022-07-18T13:58:00;1.77;;;1.67;;
16512;SDS011;8369;48.030;11.598;2022-07-18T14:00:26;2.40;;;1.90;;
16512;SDS011;8369;48.030;11.598;2022-07-18T14:02:52;7.50;;;1.98;;
16512;SDS011;8369;48.030;11.598;2022-07-18T14:05:19;4.80;;;2.15;;
16512;SDS011;8369;48.030;11.598;2022-07-18T14:07:48;4.72;;;2.28;;
16512;SDS011;8369;48.030;11.598;2022-07-18T14:10:14;3.75;;;1.90;;
16512;SDS011;8369;48.030;11.598;2022-07-18T14:12:41;4.50;;;1.80;;
16512;SDS011;8369;48.030;11.598;2022-07-18T14:15:07;4.65;;;2.00;;
16512;SDS011;8369;48.030;11.598;2022-07-18T14:17:34;3.20;;;1.98;;
16512;SDS011;8369;48.030;11.598;2022-07-18T14:20:00;1.77;;;1.67;;
16512;SDS011;8369;48.030;11.598;2022-07-18T14:22:26;2.15;;;1.95;;
16512;SDS011;8369;48.030;11.598;2022-07-18T14:24:52;2.10;;;1.90;;
16512;SDS011;8369;48.030;11.598;2022-07-18T14:27:17;2.78;;;1.88;;
16512;SDS011;8369;48.030;11.598;2022-07-18T14:29:43;2.40;;;2.20;;
16512;SDS011;8369;48.030;11.598;2022-07-18T14:32:09;2.80;;;2.15;;
16512;SDS011;8369;48.030;11.598;2022-07-18T14:34:35;2.97;;;2.20;;
16512;SDS011;8369;48.030;11.598;2022-07-18T14:37:00;4.32;;;1.95;;
16512;SDS011;8369;48.030;11.598;2022-07-18T14:39:26;1.80;;;1.70;;
16512;SDS011;8369;48.030;11.598;2022-07-18T14:41:52;2.30;;;1.80;;
16512;SDS011;8369;48.030;11.598;2022-07-18T14:44:18;7.07;;;2.15;;
16512;SDS011;8369;48.030;11.598;2022-07-18T14:46:44;4.55;;;2.03;;
16512;SDS011;8369;48.030;11.598;2022-07-18T14:49:10;8.50;;;2.60;;
16512;SDS011;8369;48.030;11.598;2022-07-18T14:51:36;1.80;;;1.70;;
16512;SDS011;8369;48.030;11.598;2022-07-18T14:54:01;2.58;;;2.25;;
16512;SDS011;8369;48.030;11.598;2022-07-18T14:56:30;2.10;;;1.90;;
16512;SDS011;8369;48.030;11.598;2022-07-18T14:58:56;3.35;;;1.90;;
16512;SDS011;8369;48.030;11.598;2022-07-18T15:01:21;2.60;;;2.30;;
16512;SDS011;8369;48.030;11.598;2022-07-18T15:03:47;2.30;;;2.10;;
16512;SDS011;8369;48.030;11.598;2022-07-18T15:06:13;2.67;;;1.95;;
16512;SDS011;8369;48.030;11.598;2022-07-18T15:08:39;2.10;;;1.90;;
16512;SDS011;8369;48.030;11.598;2022-07-18T15:11:05;2.78;;;1.90;;
16512;SDS011;8369;48.030;11.598;2022-07-18T15:13:30;4.18;;;2.00;;
16512;SDS011;8369;48.030;11.598;2022-07-18T15:15:56;3.65;;;2.08;;
16512;SDS011;8369;48.030;11.598;2022-07-18T15:18:24;2.60;;;2.10;;
16512;SDS011;8369;48.030;11.598;2022-07-18T15:20:50;2.53;;;2.33;;
16512;SDS011;8369;48.030;11.598;2022-07-18T15:23:16;2.65;;;1.88;;
16512;SDS011;8369;48.030;11.598;2022-07-18T15:25:42;2.40;;;2.20;;
16512;SDS011;8369;48.030;11.598;2022-07-18T15:28:08;2.35;;;2.15;;
16512;SDS011;8369;48.030;11.598;2022-07-18T15:30:34;6.93;;;2.15;;
16512;SDS011;8369;48.030;11.598;2022-07-18T15:33:00;2.40;;;2.05;;
16512;SDS011;8369;48.030;11.598;2022-07-18T15:35:26;2.70;;;2.45;;
16512;SDS011;8369;48.030;11.598;2022-07-18T15:37:52;4.95;;;2.50;;
16512;SDS011;8369;48.030;11.598;2022-07-18T15:40:18;3.08;;;2.58;;
16512;SDS011;8369;48.030;11.598;2022-07-18T15:42:45;2.55;;;2.20;;
16512;SDS011;8369;48.030;11.598;2022-07-18T15:45:10;3.42;;;2.75;;
16512;SDS011;8369;48.030;11.598;2022-07-18T15:47:36;2.42;;;2.15;;
16512;SDS011;8369;48.030;11.598;2022-07-18T15:50:02;2.85;;;2.55;;
16512;SDS011;8369;48.030;11.598;2022-07-18T15:52:28;4.53;;;2.60;;
16512;SDS011;8369;48.030;11.598;2022-07-18T15:54:54;3.38;;;2.42;;
16512;SDS011;8369;48.030;11.598;2022-07-18T15:57:20;4.22;;;2.75;;
16512;SDS011;8369;48.030;11.598;2022-07-18T15:59:46;6.45;;;2.60;;
16512;SDS011;8369;48.030;11.598;2022-07-18T16:02:14;2.28;;;2.08;;
16512;SDS011;8369;48.030;11.598;2022-07-18T16:04:39;2.90;;;2.60;;